Weather reports worldwide

Advertisment
Arroyo Del Ojanco, Spain (8352): temperature & dewpoint: 20.09.2020 13:00:00 - 26.09.2020 13:00:00 (CEST)Arroyo Del Ojanco, Spain (8352): wind speed: 20.09.2020 13:00:00 - 26.09.2020 13:00:00 (CEST)Arroyo Del Ojanco, Spain (8352): wind direction: 20.09.2020 13:00:00 - 26.09.2020 13:00:00 (CEST)Arroyo Del Ojanco, Spain (8352): reduced air pressure: 20.09.2020 13:00:00 - 26.09.2020 13:00:00 (CEST)Arroyo Del Ojanco, Spain (8352): precipitation: 20.09.2020 13:00:00 - 26.09.2020 13:00:00 (CEST)
Date & Time tt [°C] td [°C] ff [km/h] ff [kn] dd ppp [hPa] rr [mm]
26.09.2020 13:00:00 - - - - - - -
26.09.2020 12:00:00 18,4 7,1 5 3 NE 1013,2 0,0
26.09.2020 11:00:00 - - - - - - -
26.09.2020 10:00:00 - - - - - - -
26.09.2020 09:00:00 11,0 5,1 6 3 NE 1013,4 0,0
26.09.2020 08:00:00 - - 7 4 ENE - -
26.09.2020 07:00:00 9,8 4,1 3 2 NE 1013,1 0,0
26.09.2020 06:00:00 10,6 4,1 1 1 SSW 1013,4 0,0
26.09.2020 05:00:00 11,6 4,1 3 2 NNE 1013,8 0,0
26.09.2020 04:00:00 13,0 4,5 1 1 SE 1013,9 0,0
26.09.2020 03:00:00 13,1 3,9 3 2 NE 1014,5 0,0
26.09.2020 02:00:00 14,6 4,3 1 1 S 1014,8 -
26.09.2020 01:00:00 14,7 4,3 1 1 WSW 1015,1 0,0
26.09.2020 00:00:00 15,9 5,0 4 2 NE 1015,1 0,0
25.09.2020 23:00:00 - - - - - - -
25.09.2020 22:00:00 - - - - - - -
25.09.2020 21:00:00 19,6 8,0 5 3 SSE 1013,0 0,0
25.09.2020 20:00:00 21,7 8,5 7 4 NNW 1012,0 -
25.09.2020 19:00:00 - - - - - - -
25.09.2020 18:00:00 - - - - - - -
25.09.2020 17:00:00 - - - - - - -
25.09.2020 16:00:00 - - - - - - -
25.09.2020 15:00:00 - - - - - - -
25.09.2020 14:00:00 20,8 11,4 15 8 SW 1012,7 -
25.09.2020 13:00:00 - - - - - - -
25.09.2020 12:00:00 - - - - - - -
25.09.2020 11:00:00 17,6 13,4 18 10 SSW 1012,5 0,0
25.09.2020 10:00:00 16,3 14,1 15 8 WSW 1012,6 0,0
25.09.2020 09:00:00 - - - - - - -
25.09.2020 08:00:00 16,8 15,5 9 5 WSW 1011,1 -
25.09.2020 07:00:00 17,8 16,1 21 11 SW 1010,3 0,0
25.09.2020 06:00:00 - - - - - - -
25.09.2020 05:00:00 18,5 17,0 17 9 SW 1010,3 0,0
25.09.2020 04:00:00 - - - - - - -
25.09.2020 03:00:00 - - - - - - -
25.09.2020 02:00:00 19,1 17,1 16 8 SW 1010,8 -
25.09.2020 01:00:00 19,3 16,9 16 9 SW 1010,8 0,0
25.09.2020 00:00:00 19,6 17,2 13 7 SW 1011,0 0,0
24.09.2020 23:00:00 - - - - - - -
24.09.2020 22:00:00 - - - - - - -
24.09.2020 21:00:00 - - - - - - -
24.09.2020 20:00:00 20,3 16,6 14 7 SW 1010,2 -
24.09.2020 19:00:00 - - - - - - -
24.09.2020 18:00:00 21,4 16,6 19 11 SW 1009,1 0,0
24.09.2020 17:00:00 23,6 16,4 16 9 WSW 1008,9 0,0
24.09.2020 16:00:00 - - - - - - -
24.09.2020 15:00:00 23,7 17,0 16 9 W 1008,9 0,0
24.09.2020 14:00:00 23,1 17,1 18 10 SW 1008,9 -
24.09.2020 13:00:00 23,0 17,2 21 12 SW 1009,6 0,0
24.09.2020 12:00:00 22,6 17,3 17 9 WSW 1009,4 0,0
24.09.2020 11:00:00 21,3 17,5 8 4 WSW 1009,3 0,0
24.09.2020 10:00:00 19,6 17,0 5 3 WSW 1008,6 0,0
24.09.2020 09:00:00 18,0 16,3 7 4 SSW 1008,8 0,0
24.09.2020 08:00:00 16,9 14,7 1 1 NE 1009,0 -
24.09.2020 07:00:00 18,8 16,2 9 5 S 1008,1 0,0
24.09.2020 06:00:00 - - - - - - -
24.09.2020 05:00:00 19,1 15,3 8 4 S 1008,2 0,0
24.09.2020 04:00:00 - - - - - - -
24.09.2020 03:00:00 20,9 15,4 7 4 SSW 1008,6 0,0
24.09.2020 02:00:00 21,0 15,1 5 3 SSW 1008,8 -
24.09.2020 01:00:00 21,2 15,1 7 4 SSW 1008,7 0,0
24.09.2020 00:00:00 - - - - - - -
23.09.2020 23:00:00 - - - - - - -
23.09.2020 22:00:00 - - - - - - -
23.09.2020 21:00:00 23,4 14,7 11 6 SSW 1006,8 0,0
23.09.2020 20:00:00 24,1 14,5 16 9 SW 1006,0 -
23.09.2020 19:00:00 25,6 14,7 17 9 WSW 1005,5 0,0
23.09.2020 18:00:00 26,8 15,2 18 10 SW 1005,0 0,0
23.09.2020 17:00:00 26,7 15,1 19 11 SW 1004,8 0,0
23.09.2020 16:00:00 27,2 14,9 19 11 WSW 1005,5 0,0
23.09.2020 15:00:00 26,1 14,9 18 10 SW 1005,7 0,0
23.09.2020 14:00:00 25,7 13,9 22 12 SW 1006,2 -
23.09.2020 13:00:00 23,7 16,0 10 6 WSW 1006,8 0,0
23.09.2020 12:00:00 21,6 15,9 7 4 W 1007,4 0,0
23.09.2020 11:00:00 20,3 15,3 10 5 W 1007,7 0,0
23.09.2020 10:00:00 - - - - - - -
23.09.2020 09:00:00 18,2 14,3 6 3 S 1007,7 0,0
23.09.2020 08:00:00 17,5 13,7 1 0 WSW 1007,2 -
23.09.2020 07:00:00 18,9 14,1 8 4 S 1007,0 0,0
23.09.2020 06:00:00 18,8 14,0 9 5 SSW 1007,3 0,0
23.09.2020 05:00:00 - - - - - - -
23.09.2020 04:00:00 20,2 13,9 10 5 WSW 1007,2 0,0
23.09.2020 03:00:00 - - - - - - -
23.09.2020 02:00:00 21,0 12,1 7 4 SSW 1007,9 -
23.09.2020 01:00:00 - - - - - - -
23.09.2020 00:00:00 23,0 12,0 12 6 S 1007,5 0,0
22.09.2020 23:00:00 23,3 11,7 11 6 S 1007,5 0,0
22.09.2020 22:00:00 23,8 11,8 10 6 S 1007,0 0,0
22.09.2020 21:00:00 24,3 11,2 10 5 S 1006,1 0,0
22.09.2020 20:00:00 25,3 11,8 11 6 SSW 1005,3 -
22.09.2020 19:00:00 - - - - - - -
22.09.2020 18:00:00 27,9 12,6 19 11 SW 1004,9 0,0
22.09.2020 17:00:00 - - - - - - -
22.09.2020 16:00:00 28,4 14,6 15 8 SW 1005,8 0,0
22.09.2020 15:00:00 27,5 14,1 9 5 SW 1006,7 0,0
22.09.2020 14:00:00 26,8 14,5 11 6 SW 1007,6 -
22.09.2020 13:00:00 25,5 14,0 8 4 W 1008,2 0,0
22.09.2020 12:00:00 23,7 14,1 3 2 WNW 1008,5 0,0
22.09.2020 11:00:00 20,9 14,0 0 0 NE 1008,7 0,0
22.09.2020 10:00:00 - - - - - - -
22.09.2020 09:00:00 14,5 11,1 1 1 NE 1008,9 0,0
22.09.2020 08:00:00 14,4 10,8 1 0 N 1008,8 -
22.09.2020 07:00:00 14,3 10,9 2 1 SSW 1008,5 0,0
22.09.2020 06:00:00 15,2 11,0 1 1 WSW 1008,7 0,0
22.09.2020 05:00:00 - - - - - - -
22.09.2020 04:00:00 - - - - - - -
22.09.2020 03:00:00 17,4 11,9 3 2 S 1009,5 0,0
22.09.2020 02:00:00 18,7 12,4 2 1 ENE 1009,8 -
22.09.2020 01:00:00 19,2 12,0 3 1 NNE 1009,8 0,0
22.09.2020 00:00:00 20,1 11,8 1 0 NE 1009,8 0,0
21.09.2020 23:00:00 21,9 12,2 5 3 S 1009,3 0,0
21.09.2020 22:00:00 22,6 12,5 6 4 S 1009,0 0,0
21.09.2020 21:00:00 23,4 12,6 10 5 S 1008,5 0,0
21.09.2020 20:00:00 24,9 13,5 10 6 SW 1008,3 -
21.09.2020 19:00:00 26,1 13,9 11 6 WSW 1007,9 0,0
21.09.2020 18:00:00 27,4 14,0 12 6 SW 1007,4 0,0
21.09.2020 17:00:00 27,0 14,4 13 7 WSW 1007,8 0,0
21.09.2020 16:00:00 26,7 14,8 10 5 SSW 1008,2 0,0
21.09.2020 15:00:00 26,4 14,8 11 6 WSW 1009,0 0,0
21.09.2020 14:00:00 24,7 14,8 9 5 SW 1009,8 -
21.09.2020 13:00:00 - - - - - - -
21.09.2020 12:00:00 23,0 16,0 1 1 W 1010,6 0,0
21.09.2020 11:00:00 - - - - - - -
21.09.2020 10:00:00 18,2 14,9 4 2 NNE 1010,5 0,0
21.09.2020 09:00:00 16,6 14,0 7 4 NE 1010,6 0,0
21.09.2020 08:00:00 16,1 13,9 1 0 E 1010,2 -
21.09.2020 07:00:00 16,8 14,2 1 0 NNE 1010,3 0,0
21.09.2020 06:00:00 17,5 14,4 3 1 N 1010,1 0,0
21.09.2020 05:00:00 17,9 14,6 3 2 NNE 1010,2 0,0
21.09.2020 04:00:00 17,5 14,2 7 4 NE 1010,4 0,0
21.09.2020 03:00:00 18,6 14,2 6 3 SSW 1010,7 0,0
21.09.2020 02:00:00 19,4 13,8 1 1 NNE 1010,9 -
21.09.2020 01:00:00 20,9 14,5 5 3 S 1011,1 0,0
21.09.2020 00:00:00 - - - - - - -
20.09.2020 23:00:00 - - - - - - -
20.09.2020 22:00:00 22,3 13,4 6 3 SSW 1010,6 0,0
20.09.2020 21:00:00 22,9 13,7 8 4 SSW 1009,8 0,0
20.09.2020 20:00:00 23,8 13,7 10 5 SW 1009,4 -
20.09.2020 19:00:00 25,0 14,4 13 7 WSW 1008,8 0,0
20.09.2020 18:00:00 26,0 14,4 13 7 SW 1008,4 0,0
20.09.2020 17:00:00 - - - - - - -
20.09.2020 16:00:00 - - - - - - -
20.09.2020 15:00:00 24,3 15,3 11 6 SW 1010,2 0,0
20.09.2020 14:00:00 23,5 15,5 11 6 WSW 1010,8 -
20.09.2020 13:00:00 23,1 15,9 11 6 WSW 1010,9 0,0

tt = temperature
td = dewpoint
ff = wind speed
dd = wind direction
ppp = reduced air pressure
rr = precipitation

Next stations